Time;durP1;ratioP1;P1;durP2;ratioP2;P2;SDS_P1;SDS_P2;PMS_P1;PMS_P2;Temp;Humidity;BMP_temperature;BMP_pressure;BME280_temperature;BME280_humidity;BME280_pressure;Samples;Min_cycle;Max_cycle;Signal;HPM_P1;HPM_P2
2022/08/31 00:06:18;;;;;;;8.93;6.60;;;;;;;;;;5078105;28;20309;-83
2022/08/31 00:08:45;;;;;;;10.57;7.47;;;;;;;;;;5090091;28;20200;-83
2022/08/31 00:11:13;;;;;;;10.10;7.70;;;;;;;;;;5094878;28;20203;-83
2022/08/31 00:13:41;;;;;;;10.60;7.33;;;;;;;;;;5094807;28;20287;-83
2022/08/31 00:16:08;;;;;;;9.47;7.13;;;;;;;;;;5094674;28;20230;-83
2022/08/31 00:18:36;;;;;;;10.57;7.90;;;;;;;;;;5094280;28;20200;-83
2022/08/31 00:21:03;;;;;;;9.73;7.60;;;;;;;;;;5094193;28;20196;-83
2022/08/31 00:23:30;;;;;;;8.80;7.03;;;;;;;;;;5094396;28;20208;-83
2022/08/31 00:25:57;;;;;;;10.27;7.80;;;;;;;;;;5094506;28;20204;-82
2022/08/31 00:28:24;;;;;;;11.27;7.93;;;;;;;;;;5094197;28;20211;-82
2022/08/31 00:30:51;;;;;;;8.37;7.47;;;;;;;;;;5094487;28;20697;-81
2022/08/31 00:33:17;;;;;;;8.57;7.67;;;;;;;;;;5100893;28;20200;-83
2022/08/31 00:35:46;;;;;;;14.13;8.73;;;;;;;;;;5101877;28;20318;-83
2022/08/31 00:38:13;;;;;;;9.10;7.87;;;;;;;;;;5094267;28;20196;-81
2022/08/31 00:40:43;;;;;;;10.43;8.13;;;;;;;;;;5094255;28;20228;-83
2022/08/31 00:43:10;;;;;;;8.20;7.03;;;;;;;;;;5094116;28;20224;-82
2022/08/31 00:45:36;;;;;;;16.33;8.17;;;;;;;;;;5094004;28;20269;-83
2022/08/31 00:48:04;;;;;;;17.23;7.73;;;;;;;;;;5094011;28;20278;-81
2022/08/31 00:50:32;;;;;;;10.63;8.37;;;;;;;;;;5093254;28;20204;-82
2022/08/31 00:53:01;;;;;;;8.30;7.50;;;;;;;;;;5093832;28;20200;-84
2022/08/31 00:55:30;;;;;;;9.77;8.00;;;;;;;;;;5093631;28;20220;-83
2022/08/31 00:57:58;;;;;;;9.47;7.67;;;;;;;;;;5093777;28;20283;-82
2022/08/31 01:00:27;;;;;;;8.50;7.57;;;;;;;;;;5093506;28;20208;-83
2022/08/31 01:02:55;;;;;;;10.43;7.93;;;;;;;;;;5101454;28;20199;-83
2022/08/31 01:05:22;;;;;;;9.67;7.93;;;;;;;;;;5099398;28;20625;-83
2022/08/31 01:07:49;;;;;;;8.43;7.43;;;;;;;;;;5093954;28;20211;-84
2022/08/31 01:10:23;;;;;;;11.93;8.27;;;;;;;;;;5093395;28;20211;-83
2022/08/31 01:12:51;;;;;;;9.33;7.13;;;;;;;;;;5093334;28;20587;-84
2022/08/31 01:15:18;;;;;;;9.83;8.20;;;;;;;;;;5093069;28;20204;-85
2022/08/31 01:17:47;;;;;;;9.00;7.20;;;;;;;;;;5093547;28;20215;-83
2022/08/31 01:20:19;;;;;;;10.80;7.60;;;;;;;;;;5093616;28;20214;-83
2022/08/31 01:23:07;;;;;;;8.40;7.60;;;;;;;;;;5092434;28;20204;-83
2022/08/31 01:25:35;;;;;;;14.23;7.13;;;;;;;;;;5093192;28;20208;-83
2022/08/31 01:28:04;;;;;;;9.83;7.73;;;;;;;;;;5092782;28;20204;-83
2022/08/31 01:30:31;;;;;;;8.87;7.57;;;;;;;;;;5093229;28;20732;-83
2022/08/31 01:32:58;;;;;;;11.53;7.07;;;;;;;;;;5092691;28;20684;-83
2022/08/31 01:35:25;;;;;;;9.27;7.67;;;;;;;;;;5102860;28;20264;-83
2022/08/31 01:37:53;;;;;;;9.43;7.20;;;;;;;;;;5097441;28;20201;-83
2022/08/31 01:40:20;;;;;;;10.17;8.07;;;;;;;;;;5092626;28;20213;-83
2022/08/31 01:42:49;;;;;;;10.00;7.93;;;;;;;;;;5092808;28;20242;-84
2022/08/31 01:45:16;;;;;;;8.47;7.63;;;;;;;;;;5093115;28;20215;-83
2022/08/31 01:47:43;;;;;;;8.50;7.60;;;;;;;;;;5093209;28;20211;-83
2022/08/31 01:50:09;;;;;;;10.03;8.00;;;;;;;;;;5092388;28;20204;-83
2022/08/31 01:52:37;;;;;;;9.57;7.80;;;;;;;;;;5092595;28;20718;-83
2022/08/31 01:55:07;;;;;;;9.37;7.43;;;;;;;;;;5092546;28;20200;-83
2022/08/31 01:57:34;;;;;;;8.67;7.77;;;;;;;;;;5092517;28;20220;-83
2022/08/31 02:00:01;;;;;;;8.53;7.63;;;;;;;;;;5092530;28;20204;-82
2022/08/31 02:02:30;;;;;;;9.13;8.10;;;;;;;;;;5092417;28;20199;-83
2022/08/31 02:04:57;;;;;;;9.93;8.97;;;;;;;;;;5092317;28;20693;-83
2022/08/31 02:07:24;;;;;;;10.83;8.43;;;;;;;;;;5092377;28;21488;-82
2022/08/31 02:09:51;;;;;;;9.93;8.47;;;;;;;;;;5092588;28;20223;-83
2022/08/31 02:12:19;;;;;;;15.97;7.67;;;;;;;;;;5091913;28;20635;-83
2022/08/31 02:14:46;;;;;;;11.37;7.47;;;;;;;;;;5092768;28;20196;-83
2022/08/31 02:17:13;;;;;;;9.40;8.00;;;;;;;;;;5092157;28;20224;-83
2022/08/31 02:19:40;;;;;;;9.90;8.53;;;;;;;;;;5091993;28;21084;-83
2022/08/31 02:22:06;;;;;;;9.20;8.40;;;;;;;;;;5092130;28;20250;-83
2022/08/31 02:24:33;;;;;;;9.10;7.33;;;;;;;;;;5092053;28;20275;-83
2022/08/31 02:27:00;;;;;;;11.13;7.50;;;;;;;;;;5091972;28;20192;-82
2022/08/31 02:29:28;;;;;;;9.07;7.03;;;;;;;;;;5091867;28;20232;-83
2022/08/31 02:31:55;;;;;;;8.53;7.73;;;;;;;;;;5091582;28;20207;-84
2022/08/31 02:34:22;;;;;;;9.67;7.00;;;;;;;;;;5106428;28;20677;-83
2022/08/31 02:36:49;;;;;;;10.47;8.33;;;;;;;;;;5091487;28;20228;-83
2022/08/31 02:39:16;;;;;;;8.20;7.50;;;;;;;;;;5092196;28;20200;-83
2022/08/31 02:41:43;;;;;;;8.73;7.83;;;;;;;;;;5091612;28;20203;-83
2022/08/31 02:44:09;;;;;;;9.43;7.57;;;;;;;;;;5091963;28;20595;-83
2022/08/31 02:46:37;;;;;;;8.33;7.57;;;;;;;;;;5091479;28;20606;-83
2022/08/31 02:49:04;;;;;;;14.10;8.80;;;;;;;;;;5091760;28;20200;-83
2022/08/31 02:51:31;;;;;;;10.70;7.90;;;;;;;;;;5091407;28;20200;-83
2022/08/31 02:53:58;;;;;;;10.83;8.10;;;;;;;;;;5091583;28;20557;-83
2022/08/31 02:56:25;;;;;;;7.93;6.50;;;;;;;;;;5091657;28;20223;-83
2022/08/31 02:58:53;;;;;;;8.60;7.80;;;;;;;;;;5091366;28;20208;-83
2022/08/31 03:01:21;;;;;;;9.83;7.53;;;;;;;;;;5091377;28;20752;-83
2022/08/31 03:03:49;;;;;;;8.70;7.60;;;;;;;;;;5091026;28;20228;-83
2022/08/31 03:06:17;;;;;;;8.57;7.77;;;;;;;;;;5098744;28;20206;-83
2022/08/31 03:08:44;;;;;;;7.00;6.40;;;;;;;;;;5097872;28;20228;-82
2022/08/31 03:11:10;;;;;;;9.83;7.97;;;;;;;;;;5076951;28;20201;-82
2022/08/31 03:13:38;;;;;;;8.93;8.13;;;;;;;;;;5091120;28;20718;-83
2022/08/31 03:16:05;;;;;;;10.47;7.67;;;;;;;;;;5090895;28;20227;-83
2022/08/31 03:18:32;;;;;;;9.30;6.83;;;;;;;;;;5091247;28;20204;-83
2022/08/31 03:21:01;;;;;;;9.60;8.20;;;;;;;;;;5090831;28;20713;-83
2022/08/31 03:23:28;;;;;;;11.30;8.20;;;;;;;;;;5090835;28;20718;-83
2022/08/31 03:25:54;;;;;;;8.67;7.43;;;;;;;;;;5090759;28;20196;-83
2022/08/31 03:28:21;;;;;;;8.50;7.70;;;;;;;;;;5098766;28;20203;-82
2022/08/31 03:30:48;;;;;;;8.87;8.03;;;;;;;;;;5097061;28;20228;-83
2022/08/31 03:33:15;;;;;;;8.73;7.93;;;;;;;;;;5090819;28;20203;-83
2022/08/31 03:35:43;;;;;;;11.10;8.93;;;;;;;;;;5091016;28;20208;-83
2022/08/31 03:38:12;;;;;;;9.03;8.13;;;;;;;;;;5090516;28;20652;-82
2022/08/31 03:40:39;;;;;;;12.13;8.63;;;;;;;;;;5090494;28;20709;-83
2022/08/31 03:43:10;;;;;;;16.70;7.87;;;;;;;;;;5090778;28;20249;-82
2022/08/31 03:45:37;;;;;;;9.33;8.03;;;;;;;;;;5090332;28;20197;-82
2022/08/31 03:48:05;;;;;;;8.83;7.97;;;;;;;;;;5090625;28;20207;-82
2022/08/31 03:50:32;;;;;;;8.90;7.97;;;;;;;;;;5090340;28;20227;-83
2022/08/31 03:52:59;;;;;;;10.03;8.20;;;;;;;;;;5090635;28;20698;-83
2022/08/31 03:55:27;;;;;;;8.67;7.57;;;;;;;;;;5090411;28;20204;-83
2022/08/31 03:57:54;;;;;;;9.20;8.33;;;;;;;;;;5090399;28;20277;-83
2022/08/31 04:00:21;;;;;;;8.50;7.80;;;;;;;;;;5090389;28;20624;-83
2022/08/31 04:02:48;;;;;;;8.43;7.63;;;;;;;;;;5090680;28;20638;-83
2022/08/31 04:05:16;;;;;;;11.43;8.03;;;;;;;;;;5090324;28;20209;-83
2022/08/31 04:07:43;;;;;;;17.00;8.63;;;;;;;;;;5090829;28;20226;-83
2022/08/31 04:10:10;;;;;;;15.27;8.50;;;;;;;;;;5090517;28;20200;-83
2022/08/31 04:12:39;;;;;;;9.73;8.67;;;;;;;;;;5093870;28;20203;-83
2022/08/31 04:15:07;;;;;;;11.27;9.50;;;;;;;;;;5100391;28;20273;-82
2022/08/31 04:17:34;;;;;;;9.10;8.20;;;;;;;;;;5090119;28;20301;-82
2022/08/31 04:20:01;;;;;;;8.93;8.13;;;;;;;;;;5090273;28;20219;-82
2022/08/31 04:22:28;;;;;;;9.83;8.03;;;;;;;;;;5090076;28;20618;-83
2022/08/31 04:24:55;;;;;;;8.83;8.00;;;;;;;;;;5089933;28;20207;-81
2022/08/31 04:27:22;;;;;;;9.00;8.10;;;;;;;;;;5090336;28;20208;-82
2022/08/31 04:29:50;;;;;;;8.63;7.83;;;;;;;;;;5089729;28;20231;-82
2022/08/31 04:32:18;;;;;;;13.23;9.23;;;;;;;;;;5089938;28;20204;-81
2022/08/31 04:34:45;;;;;;;9.10;7.97;;;;;;;;;;5090044;28;20192;-83
2022/08/31 04:37:13;;;;;;;9.27;8.47;;;;;;;;;;5090592;28;20710;-88
2022/08/31 04:39:41;;;;;;;9.60;8.30;;;;;;;;;;5090502;28;20261;-89
2022/08/31 04:42:10;;;;;;;9.30;7.73;;;;;;;;;;5091069;28;20264;-87
2022/08/31 04:44:37;;;;;;;9.57;8.00;;;;;;;;;;5090900;28;20767;-87
2022/08/31 04:47:07;;;;;;;10.13;8.73;;;;;;;;;;5091366;28;20223;-89
2022/08/31 04:49:33;;;;;;;11.37;7.70;;;;;;;;;;5091213;28;20332;-88
2022/08/31 04:52:00;;;;;;;9.10;8.27;;;;;;;;;;5090610;28;20205;-86
2022/08/31 04:54:28;;;;;;;9.83;8.60;;;;;;;;;;5091036;28;20205;-87
2022/08/31 04:56:57;;;;;;;12.37;9.27;;;;;;;;;;5092607;28;20306;-86
2022/08/31 04:59:26;;;;;;;12.10;8.30;;;;;;;;;;5094387;28;20266;-87
2022/08/31 05:01:53;;;;;;;9.40;8.60;;;;;;;;;;5094388;28;20204;-88
2022/08/31 05:04:23;;;;;;;11.90;7.67;;;;;;;;;;5094481;28;20235;-87
2022/08/31 05:06:50;;;;;;;12.30;7.63;;;;;;;;;;5093995;28;20200;-87
2022/08/31 05:09:20;;;;;;;9.70;8.60;;;;;;;;;;5094005;28;20212;-87
2022/08/31 05:11:48;;;;;;;9.13;8.23;;;;;;;;;;5094632;28;20830;-86
2022/08/31 05:14:15;;;;;;;12.70;9.07;;;;;;;;;;5094244;28;20592;-87
2022/08/31 05:16:43;;;;;;;12.47;8.60;;;;;;;;;;5094198;28;20224;-87
2022/08/31 05:19:10;;;;;;;11.27;8.70;;;;;;;;;;5093889;28;20201;-86
2022/08/31 05:21:40;;;;;;;9.40;8.50;;;;;;;;;;5093847;28;20212;-88
2022/08/31 05:24:08;;;;;;;9.83;8.93;;;;;;;;;;5093857;28;20224;-87
2022/08/31 05:26:38;;;;;;;9.87;8.20;;;;;;;;;;5093611;28;20283;-87
2022/08/31 05:29:09;;;;;;;10.23;7.97;;;;;;;;;;5094012;28;20633;-88
2022/08/31 05:31:37;;;;;;;8.83;8.00;;;;;;;;;;5079916;28;20192;-88
2022/08/31 05:34:04;;;;;;;9.83;8.47;;;;;;;;;;5093831;28;20208;-87
2022/08/31 05:36:31;;;;;;;12.13;9.00;;;;;;;;;;5093538;28;20223;-87
2022/08/31 05:39:00;;;;;;;9.70;8.70;;;;;;;;;;5093744;28;20207;-87
2022/08/31 05:41:27;;;;;;;10.90;7.60;;;;;;;;;;5093570;28;20204;-88
2022/08/31 05:43:54;;;;;;;10.00;9.20;;;;;;;;;;5103189;28;20191;-87
2022/08/31 05:46:21;;;;;;;9.57;7.83;;;;;;;;;;5097269;28;20207;-88
2022/08/31 05:48:48;;;;;;;10.17;8.33;;;;;;;;;;5093656;28;20204;-88
2022/08/31 05:51:16;;;;;;;9.97;8.13;;;;;;;;;;5093172;28;20679;-87
2022/08/31 05:53:43;;;;;;;10.23;8.00;;;;;;;;;;5079326;28;20200;-88
2022/08/31 05:56:13;;;;;;;11.23;8.83;;;;;;;;;;5093263;28;20204;-88
2022/08/31 05:58:42;;;;;;;8.93;8.03;;;;;;;;;;5093307;28;20713;-87
2022/08/31 06:01:13;;;;;;;11.80;8.17;;;;;;;;;;5093039;28;20204;-88
2022/08/31 06:03:40;;;;;;;11.23;8.33;;;;;;;;;;5092883;28;20205;-87
2022/08/31 06:06:08;;;;;;;11.00;7.73;;;;;;;;;;5093126;28;20204;-88
2022/08/31 06:08:35;;;;;;;11.37;9.07;;;;;;;;;;5092977;28;20299;-87
2022/08/31 06:11:03;;;;;;;10.27;7.77;;;;;;;;;;5092875;28;20204;-88
2022/08/31 06:13:31;;;;;;;9.27;7.37;;;;;;;;;;5092672;28;20253;-88
2022/08/31 06:15:58;;;;;;;8.37;7.60;;;;;;;;;;5093228;28;20208;-88
2022/08/31 06:18:25;;;;;;;10.60;8.03;;;;;;;;;;5092712;28;20223;-87
2022/08/31 06:21:01;;;;;;;9.20;7.67;;;;;;;;;;5093185;28;20200;-88
2022/08/31 06:23:29;;;;;;;8.17;7.33;;;;;;;;;;5092973;28;20207;-88
2022/08/31 06:26:02;;;;;;;13.27;7.47;;;;;;;;;;5092753;28;20199;-87
2022/08/31 06:28:32;;;;;;;9.33;7.40;;;;;;;;;;5092899;28;20200;-88
2022/08/31 06:31:00;;;;;;;9.77;7.77;;;;;;;;;;5092348;28;20204;-88
2022/08/31 06:33:28;;;;;;;9.80;7.67;;;;;;;;;;5093068;28;20204;-88
2022/08/31 06:35:55;;;;;;;12.40;7.40;;;;;;;;;;5092702;28;20200;-88
2022/08/31 06:38:23;;;;;;;8.03;7.33;;;;;;;;;;5092295;28;20293;-87
2022/08/31 06:40:50;;;;;;;11.27;8.37;;;;;;;;;;5092467;28;20641;-87
2022/08/31 06:43:16;;;;;;;10.77;8.40;;;;;;;;;;5092426;28;20200;-87
2022/08/31 06:45:45;;;;;;;8.30;7.43;;;;;;;;;;5092174;28;20204;-87
2022/08/31 06:48:12;;;;;;;7.83;7.07;;;;;;;;;;5084785;28;20212;-88
2022/08/31 06:50:40;;;;;;;10.00;6.97;;;;;;;;;;5092103;28;20199;-88
2022/08/31 06:53:08;;;;;;;11.43;8.27;;;;;;;;;;5092405;28;20205;-88
2022/08/31 06:55:35;;;;;;;9.57;7.47;;;;;;;;;;5092111;28;20208;-89
2022/08/31 06:58:02;;;;;;;8.30;7.17;;;;;;;;;;5092597;28;20631;-87
2022/08/31 07:00:32;;;;;;;8.70;7.87;;;;;;;;;;5092024;28;20643;-87
2022/08/31 07:03:21;;;;;;;9.87;7.50;;;;;;;;;;5091999;28;20200;-87
2022/08/31 07:05:49;;;;;;;11.53;7.10;;;;;;;;;;5077143;28;20683;-87
2022/08/31 07:08:16;;;;;;;9.77;7.77;;;;;;;;;;5092435;28;20208;-88
2022/08/31 07:10:43;;;;;;;14.27;7.50;;;;;;;;;;5092303;28;20231;-88
2022/08/31 07:13:09;;;;;;;12.13;7.87;;;;;;;;;;5091957;28;20208;-88
2022/08/31 07:15:36;;;;;;;9.50;7.77;;;;;;;;;;5091681;28;20204;-87
2022/08/31 07:18:04;;;;;;;9.57;7.13;;;;;;;;;;5091337;28;20216;-87
2022/08/31 07:20:31;;;;;;;14.20;7.67;;;;;;;;;;5090760;28;20197;-87
2022/08/31 07:22:58;;;;;;;8.87;7.97;;;;;;;;;;5091839;28;20860;-88
2022/08/31 07:25:26;;;;;;;8.67;7.77;;;;;;;;;;5091846;28;20205;-87
2022/08/31 07:27:54;;;;;;;10.80;7.47;;;;;;;;;;5091724;28;20200;-88
2022/08/31 07:30:21;;;;;;;8.13;7.43;;;;;;;;;;5091469;28;20227;-87
2022/08/31 07:32:49;;;;;;;7.60;6.90;;;;;;;;;;5090742;28;20208;-87
2022/08/31 07:35:17;;;;;;;9.48;7.15;;;;;;;;;;5091108;28;20691;-87
2022/08/31 07:43:13;;;;;;;13.35;7.63;;;;;;;;;;5090967;28;20222;-87
2022/08/31 07:45:41;;;;;;;12.00;6.38;;;;;;;;;;5091321;28;20208;-87
2022/08/31 07:48:08;;;;;;;12.90;6.93;;;;;;;;;;5103112;28;20216;-87
2022/08/31 07:50:43;;;;;;;7.68;6.95;;;;;;;;;;5078401;28;20196;-87
2022/08/31 07:53:10;;;;;;;7.30;6.68;;;;;;;;;;5091092;28;20199;-87
2022/08/31 07:55:38;;;;;;;9.68;6.97;;;;;;;;;;5090699;28;20188;-87
2022/08/31 07:58:04;;;;;;;10.43;7.50;;;;;;;;;;5091006;28;20226;-86
2022/08/31 08:00:34;;;;;;;7.53;6.88;;;;;;;;;;5090140;28;20207;-86
2022/08/31 08:03:05;;;;;;;12.30;6.07;;;;;;;;;;5090942;28;20279;-87
2022/08/31 08:05:40;;;;;;;11.88;7.30;;;;;;;;;;5091134;28;20578;-87
2022/08/31 08:08:10;;;;;;;8.85;6.75;;;;;;;;;;5090779;28;20231;-87
2022/08/31 08:10:40;;;;;;;14.90;6.68;;;;;;;;;;5090640;28;20196;-87
2022/08/31 08:13:07;;;;;;;7.68;5.97;;;;;;;;;;5091171;28;21013;-87
2022/08/31 08:15:36;;;;;;;7.18;6.30;;;;;;;;;;5090233;28;20205;-86
2022/08/31 08:18:03;;;;;;;9.50;6.10;;;;;;;;;;5090695;28;20227;-86
2022/08/31 08:20:30;;;;;;;8.15;6.25;;;;;;;;;;5090338;28;20208;-86
2022/08/31 08:22:57;;;;;;;6.50;5.80;;;;;;;;;;5090742;28;20200;-86
2022/08/31 08:25:25;;;;;;;13.48;6.07;;;;;;;;;;5090805;28;20208;-86
2022/08/31 08:27:53;;;;;;;19.15;6.80;;;;;;;;;;5090279;28;20200;-86
2022/08/31 08:30:20;;;;;;;8.88;6.38;;;;;;;;;;5091486;28;20717;-86
2022/08/31 08:32:47;;;;;;;8.52;5.68;;;;;;;;;;5094509;28;20210;-86
2022/08/31 08:35:15;;;;;;;9.98;6.50;;;;;;;;;;5094500;28;20200;-87
2022/08/31 08:37:44;;;;;;;6.60;5.75;;;;;;;;;;5094148;28;20232;-87
2022/08/31 08:40:16;;;;;;;10.32;6.10;;;;;;;;;;5094477;28;20205;-87
2022/08/31 08:42:44;;;;;;;7.10;5.85;;;;;;;;;;5094625;28;20208;-87
2022/08/31 08:45:12;;;;;;;6.80;5.55;;;;;;;;;;5093615;28;20743;-86
2022/08/31 08:47:39;;;;;;;9.30;6.20;;;;;;;;;;5093873;28;20540;-87
2022/08/31 08:50:07;;;;;;;11.98;6.07;;;;;;;;;;5094016;28;20234;-87
2022/08/31 08:52:39;;;;;;;7.68;5.53;;;;;;;;;;5094596;28;20643;-87
2022/08/31 08:55:09;;;;;;;9.20;6.20;;;;;;;;;;5093857;28;20287;-88
2022/08/31 08:57:39;;;;;;;7.95;6.07;;;;;;;;;;5093921;28;20200;-86
2022/08/31 09:00:10;;;;;;;7.30;5.18;;;;;;;;;;5093545;28;20208;-86
2022/08/31 09:02:41;;;;;;;9.20;5.78;;;;;;;;;;5093778;28;20207;-86
2022/08/31 09:05:33;;;;;;;10.18;5.95;;;;;;;;;;5106630;28;20643;-86
2022/08/31 09:08:15;;;;;;;9.85;6.30;;;;;;;;;;5081333;28;20204;-86
2022/08/31 09:10:45;;;;;;;13.40;6.45;;;;;;;;;;5093331;28;20209;-86
2022/08/31 09:13:18;;;;;;;7.78;5.30;;;;;;;;;;5102413;28;20294;-86
2022/08/31 09:16:08;;;;;;;8.80;5.22;;;;;;;;;;5097265;28;20203;-86
2022/08/31 09:18:43;;;;;;;6.47;5.75;;;;;;;;;;5093419;28;20660;-86
2022/08/31 09:21:20;;;;;;;10.23;6.38;;;;;;;;;;5093065;28;20667;-87
2022/08/31 09:23:53;;;;;;;8.75;4.93;;;;;;;;;;5093960;28;20290;-86
2022/08/31 09:26:26;;;;;;;8.02;5.32;;;;;;;;;;5093210;28;20682;-86
2022/08/31 09:28:54;;;;;;;9.15;5.47;;;;;;;;;;5093693;28;20228;-84
2022/08/31 09:31:36;;;;;;;8.68;5.82;;;;;;;;;;5092726;28;20200;-84
2022/08/31 09:34:07;;;;;;;7.38;5.95;;;;;;;;;;5093218;28;20701;-88
2022/08/31 09:36:37;;;;;;;7.40;5.50;;;;;;;;;;5093159;28;20265;-87
2022/08/31 09:39:15;;;;;;;11.77;5.55;;;;;;;;;;5093698;28;20224;-86
2022/08/31 09:41:42;;;;;;;11.02;6.55;;;;;;;;;;5092248;28;20203;-86
2022/08/31 09:44:35;;;;;;;7.50;6.10;;;;;;;;;;5092929;28;20612;-87
2022/08/31 09:47:06;;;;;;;14.55;5.50;;;;;;;;;;5055776;28;20196;-87
2022/08/31 09:49:36;;;;;;;6.53;5.45;;;;;;;;;;5092448;28;20211;-87
2022/08/31 09:52:20;;;;;;;13.23;5.97;;;;;;;;;;5082528;28;20640;-87
2022/08/31 09:55:16;;;;;;;8.10;5.93;;;;;;;;;;5092861;28;20219;-87
2022/08/31 09:57:51;;;;;;;11.57;6.10;;;;;;;;;;5079683;28;20203;-86
2022/08/31 10:00:31;;;;;;;6.57;5.47;;;;;;;;;;5107076;28;20210;-88
2022/08/31 10:03:12;;;;;;;12.75;6.90;;;;;;;;;;5093047;28;20208;-86
2022/08/31 10:05:42;;;;;;;7.65;5.90;;;;;;;;;;5106945;28;20597;-87
2022/08/31 10:08:26;;;;;;;6.80;5.70;;;;;;;;;;5092770;28;20301;-86
2022/08/31 10:10:57;;;;;;;6.47;5.88;;;;;;;;;;5092636;28;20192;-85
2022/08/31 10:13:33;;;;;;;7.63;5.82;;;;;;;;;;5092327;28;20880;-87
2022/08/31 10:16:08;;;;;;;8.38;5.35;;;;;;;;;;5091735;28;20287;-86
2022/08/31 10:18:42;;;;;;;9.13;6.32;;;;;;;;;;5103337;28;20314;-87
2022/08/31 10:21:13;;;;;;;8.15;5.88;;;;;;;;;;5084237;28;20286;-87
2022/08/31 10:23:52;;;;;;;6.80;6.13;;;;;;;;;;5091868;28;20208;-86
2022/08/31 10:26:34;;;;;;;7.13;5.40;;;;;;;;;;5092286;28;20682;-86
2022/08/31 10:29:15;;;;;;;10.27;5.88;;;;;;;;;;5092101;28;20230;-87
2022/08/31 10:31:46;;;;;;;8.27;6.28;;;;;;;;;;5078703;28;20204;-86
2022/08/31 10:37:08;;;;;;;8.40;6.03;;;;;;;;;;5049468;28;20690;-86
2022/08/31 10:39:40;;;;;;;6.28;5.55;;;;;;;;;;5091488;28;20277;-87
2022/08/31 10:42:10;;;;;;;7.80;5.90;;;;;;;;;;5092044;28;20646;-86
2022/08/31 10:44:43;;;;;;;12.75;7.00;;;;;;;;;;5091607;28;20208;-86
2022/08/31 10:47:11;;;;;;;14.43;7.53;;;;;;;;;;5092135;28;20200;-86
2022/08/31 10:49:41;;;;;;;8.27;6.32;;;;;;;;;;5091306;28;20211;-86
2022/08/31 10:52:14;;;;;;;12.73;6.32;;;;;;;;;;5091728;28;20713;-86
2022/08/31 10:54:47;;;;;;;11.90;6.30;;;;;;;;;;5091361;28;20569;-84
2022/08/31 10:57:20;;;;;;;9.38;5.40;;;;;;;;;;5091372;28;20204;-86
2022/08/31 10:59:53;;;;;;;8.38;6.15;;;;;;;;;;5091524;28;20228;-86
2022/08/31 11:05:35;;;;;;;9.05;5.60;;;;;;;;;;5088813;28;20702;-86
2022/08/31 11:08:11;;;;;;;8.00;5.90;;;;;;;;;;5091469;28;20196;-85
2022/08/31 11:10:47;;;;;;;10.63;5.75;;;;;;;;;;5090894;28;20196;-86
2022/08/31 11:13:38;;;;;;;9.80;5.93;;;;;;;;;;5091281;28;20622;-85
2022/08/31 11:16:31;;;;;;;6.82;6.10;;;;;;;;;;5091337;28;20599;-86
2022/08/31 11:19:41;;;;;;;6.43;5.60;;;;;;;;;;5091216;28;20224;-85
2022/08/31 11:22:19;;;;;;;10.60;5.78;;;;;;;;;;5090912;28;20200;-86
2022/08/31 11:25:23;;;;;;;10.48;5.80;;;;;;;;;;5090804;28;20670;-88
2022/08/31 11:27:53;;;;;;;7.30;4.80;;;;;;;;;;5089457;28;20291;-85
2022/08/31 11:30:26;;;;;;;9.27;5.95;;;;;;;;;;5090673;28;20638;-87
2022/08/31 11:32:55;;;;;;;11.32;5.75;;;;;;;;;;5091065;28;20207;-87
2022/08/31 11:35:59;;;;;;;8.82;5.75;;;;;;;;;;5091579;28;20254;-87
2022/08/31 11:38:51;;;;;;;9.88;6.57;;;;;;;;;;5092246;28;20737;-94
2022/08/31 11:41:40;;;;;;;8.80;6.32;;;;;;;;;;5091739;28;20211;-93
2022/08/31 11:44:07;;;;;;;6.72;6.00;;;;;;;;;;5092001;28;20204;-91
2022/08/31 11:47:07;;;;;;;7.25;6.15;;;;;;;;;;5092352;28;20204;-92
2022/08/31 11:49:46;;;;;;;8.18;6.93;;;;;;;;;;5092248;28;20207;-93
2022/08/31 11:52:52;;;;;;;11.27;6.95;;;;;;;;;;5079699;28;20211;-88
2022/08/31 11:55:37;;;;;;;7.60;6.25;;;;;;;;;;5090724;28;20204;-87
2022/08/31 11:58:33;;;;;;;9.53;6.03;;;;;;;;;;5090590;28;20235;-87
2022/08/31 12:01:02;;;;;;;10.40;5.63;;;;;;;;;;5075645;28;20686;-85
2022/08/31 12:04:02;;;;;;;16.47;6.33;;;;;;;;;;5090495;28;20691;-80
2022/08/31 12:07:09;;;;;;;12.10;7.80;;;;;;;;;;5089207;28;20260;-80
2022/08/31 12:10:09;;;;;;;10.10;6.33;;;;;;;;;;5077920;28;20262;-81
2022/08/31 12:13:29;;;;;;;7.23;5.27;;;;;;;;;;5090860;28;20210;-82
2022/08/31 12:16:17;;;;;;;11.50;6.10;;;;;;;;;;5090861;28;20595;-80
2022/08/31 12:24:54;;;;;;;10.70;6.50;;;;;;;;;;5090502;28;20206;-81
2022/08/31 12:27:28;;;;;;;10.80;6.57;;;;;;;;;;5090834;28;20208;-81
2022/08/31 12:30:14;;;;;;;7.73;6.67;;;;;;;;;;5090819;28;20216;-81
2022/08/31 12:32:42;;;;;;;9.13;6.67;;;;;;;;;;5090955;28;20602;-84
2022/08/31 12:35:14;;;;;;;10.27;6.70;;;;;;;;;;5090826;28;20211;-82
2022/08/31 12:37:41;;;;;;;8.37;5.97;;;;;;;;;;5090684;28;20205;-83
2022/08/31 12:40:19;;;;;;;8.87;7.03;;;;;;;;;;5090629;28;20232;-82
2022/08/31 12:42:54;;;;;;;8.60;7.13;;;;;;;;;;5090884;28;20208;-86
2022/08/31 12:45:36;;;;;;;9.50;6.70;;;;;;;;;;5090295;28;21087;-82
2022/08/31 12:48:08;;;;;;;9.47;6.60;;;;;;;;;;5076337;28;20208;-82
2022/08/31 12:50:39;;;;;;;9.87;7.17;;;;;;;;;;5090502;28;20212;-81
2022/08/31 12:53:25;;;;;;;7.73;7.03;;;;;;;;;;5090558;28;20212;-82
2022/08/31 12:55:55;;;;;;;7.63;6.90;;;;;;;;;;5090397;28;20212;-82
2022/08/31 12:58:39;;;;;;;9.90;6.50;;;;;;;;;;5090781;28;20208;-83
2022/08/31 13:01:10;;;;;;;7.47;6.03;;;;;;;;;;5090169;28;20624;-82
2022/08/31 13:03:39;;;;;;;8.83;6.03;;;;;;;;;;5090638;28;20216;-82
2022/08/31 13:06:08;;;;;;;9.70;6.70;;;;;;;;;;5090187;28;20640;-83
2022/08/31 13:08:39;;;;;;;7.13;6.43;;;;;;;;;;5090222;28;20208;-83
2022/08/31 13:11:26;;;;;;;9.20;6.90;;;;;;;;;;5090152;28;20223;-82
2022/08/31 13:13:54;;;;;;;7.53;6.40;;;;;;;;;;5090516;28;20208;-83
2022/08/31 13:16:22;;;;;;;8.60;6.70;;;;;;;;;;5089937;28;20200;-82
2022/08/31 13:19:05;;;;;;;7.13;6.20;;;;;;;;;;5093218;28;20564;-82
2022/08/31 13:21:34;;;;;;;6.43;5.90;;;;;;;;;;5081166;28;20227;-82
2022/08/31 13:24:06;;;;;;;9.90;7.40;;;;;;;;;;5093966;28;20215;-82
2022/08/31 13:26:34;;;;;;;10.33;6.47;;;;;;;;;;5079831;28;20744;-82
2022/08/31 13:29:06;;;;;;;8.43;6.77;;;;;;;;;;5080576;28;20229;-84
2022/08/31 13:31:38;;;;;;;10.27;6.27;;;;;;;;;;5093301;28;20200;-82
2022/08/31 13:34:07;;;;;;;7.50;6.33;;;;;;;;;;5093617;28;20200;-83
2022/08/31 13:36:37;;;;;;;8.23;5.77;;;;;;;;;;5093668;28;20589;-88
2022/08/31 13:39:10;;;;;;;6.93;6.23;;;;;;;;;;5093380;28;20204;-83
2022/08/31 13:41:39;;;;;;;7.03;5.93;;;;;;;;;;5079372;28;20223;-83
2022/08/31 13:44:08;;;;;;;7.27;6.53;;;;;;;;;;5093574;28;20208;-84
2022/08/31 13:46:38;;;;;;;10.07;5.97;;;;;;;;;;5079462;28;20705;-83
2022/08/31 13:49:11;;;;;;;8.60;6.97;;;;;;;;;;5093231;28;20200;-84
2022/08/31 13:51:46;;;;;;;11.67;5.93;;;;;;;;;;5093403;28;20203;-83
2022/08/31 13:54:16;;;;;;;6.80;5.87;;;;;;;;;;5093264;28;20238;-83
2022/08/31 13:59:35;;;;;;;9.57;5.73;;;;;;;;;;5087629;28;20290;-84
2022/08/31 14:02:07;;;;;;;7.70;7.00;;;;;;;;;;5093043;28;20204;-84
2022/08/31 14:04:49;;;;;;;10.87;6.57;;;;;;;;;;5090280;28;20212;-85
2022/08/31 14:07:20;;;;;;;10.33;5.90;;;;;;;;;;5092924;28;20295;-85
2022/08/31 14:09:50;;;;;;;7.23;6.43;;;;;;;;;;5092731;28;20211;-85
2022/08/31 14:12:33;;;;;;;11.30;7.17;;;;;;;;;;5093292;28;20295;-85
2022/08/31 14:15:08;;;;;;;7.70;6.37;;;;;;;;;;5092952;28;20200;-86
2022/08/31 14:17:40;;;;;;;10.40;7.43;;;;;;;;;;5093228;28;20639;-86
2022/08/31 14:20:32;;;;;;;7.77;6.53;;;;;;;;;;5092785;28;20327;-86
2022/08/31 14:23:30;;;;;;;7.93;6.40;;;;;;;;;;5093006;28;20204;-87
2022/08/31 14:25:59;;;;;;;6.23;5.63;;;;;;;;;;5092528;28;20210;-85
2022/08/31 14:28:35;;;;;;;10.03;6.03;;;;;;;;;;5092553;28;20204;-86
2022/08/31 14:31:11;;;;;;;6.90;5.17;;;;;;;;;;5092475;28;20196;-86
2022/08/31 14:33:39;;;;;;;9.57;5.83;;;;;;;;;;5092224;28;20214;-87
2022/08/31 14:36:13;;;;;;;9.97;5.47;;;;;;;;;;5092760;28;20270;-88
2022/08/31 14:38:41;;;;;;;7.80;5.90;;;;;;;;;;5092766;28;20208;-88
2022/08/31 14:41:09;;;;;;;7.73;6.13;;;;;;;;;;5092649;28;20696;-88
2022/08/31 14:43:37;;;;;;;10.97;6.50;;;;;;;;;;5093206;28;20234;-89
2022/08/31 14:46:05;;;;;;;6.63;5.97;;;;;;;;;;5092860;28;20279;-87
2022/08/31 14:48:32;;;;;;;10.33;6.87;;;;;;;;;;5092537;28;20238;-87
2022/08/31 14:51:06;;;;;;;12.33;7.27;;;;;;;;;;5092370;28;20208;-87
2022/08/31 14:53:36;;;;;;;7.80;6.50;;;;;;;;;;5092920;28;20616;-87
2022/08/31 14:56:06;;;;;;;9.17;6.43;;;;;;;;;;5092967;28;20269;-89
2022/08/31 14:58:40;;;;;;;13.87;6.60;;;;;;;;;;5092315;28;20208;-89
2022/08/31 15:01:10;;;;;;;7.83;6.90;;;;;;;;;;5092538;28;20230;-88
2022/08/31 15:03:39;;;;;;;11.10;6.60;;;;;;;;;;5092677;28;20257;-89
2022/08/31 15:06:08;;;;;;;9.63;7.10;;;;;;;;;;5093014;28;20219;-89
2022/08/31 15:08:36;;;;;;;8.90;6.43;;;;;;;;;;5092820;28;20200;-90
2022/08/31 15:11:04;;;;;;;10.20;7.07;;;;;;;;;;5092568;28;20197;-89
2022/08/31 15:13:32;;;;;;;9.50;6.60;;;;;;;;;;5092098;28;20201;-88
2022/08/31 15:16:02;;;;;;;9.90;6.83;;;;;;;;;;5088828;28;20683;-89
2022/08/31 15:18:30;;;;;;;11.60;7.30;;;;;;;;;;5072248;28;20699;-89
2022/08/31 15:20:58;;;;;;;8.13;7.00;;;;;;;;;;5071723;28;20243;-88
2022/08/31 15:23:26;;;;;;;7.83;6.70;;;;;;;;;;5072179;28;20216;-88
2022/08/31 15:26:02;;;;;;;8.70;7.30;;;;;;;;;;5072113;28;20215;-92
2022/08/31 15:28:30;;;;;;;7.43;6.67;;;;;;;;;;5080768;28;20232;-90